Highbridge, New York
Current Conditions -  °F | °C
As of 9:51 PM on Saturday 25 Oct 2014 (Local Time) from KNYC Reporting Station
Clear Clear  
Wind Chill: 63°   Ceiling: Unl
Heat Index: 63°   Visibility: 10mi
Dew Point: 43°   Wind: 13mph
Humidity: 48%   Direction: 240°WSW
Pressure: 29.62"   Gusts: 26mph
Location:  40.8376°N, 73.9236°W
Report Text: KNYC 260151Z AUTO 24011G23KT 190V280 10SM CLR 17/06 A2962 RMK AO2 SLP022 T01720061 $
Loading
Personal Weather Stations






























Interactive Weather Map
Tropical Storm Tracking
New forecast layout! Learn more

10-Day Weather Forecast

Advertisements
Track Severe Weather on mobile